Time;durP1;ratioP1;P1;durP2;ratioP2;P2;SDS_P1;SDS_P2;PMS_P1;PMS_P2;Temp;Humidity;BMP_temperature;BMP_pressure;BME280_temperature;BME280_humidity;BME280_pressure;Samples;Min_cycle;Max_cycle;Signal;HPM_P1;HPM_P2
2023/03/16 00:00:43;;;;;;;3.57;2.20;;;9.00;99.90;;;;;;5000454;28;20480;-87
2023/03/16 00:03:17;;;;;;;3.10;2.00;;;9.00;99.90;;;;;;4994829;28;20176;-88
2023/03/16 00:05:45;;;;;;;3.03;1.98;;;9.00;99.90;;;;;;4984462;28;20026;-86
2023/03/16 00:08:11;;;;;;;4.10;2.28;;;9.00;99.90;;;;;;4995501;28;20541;-88
2023/03/16 00:10:37;;;;;;;3.67;2.30;;;9.00;99.90;;;;;;4999696;28;20329;-86
2023/03/16 00:13:03;;;;;;;4.38;2.78;;;9.10;99.90;;;;;;5007988;28;20417;-87
2023/03/16 00:15:28;;;;;;;3.93;2.10;;;9.00;99.90;;;;;;4980351;28;20398;-87
2023/03/16 00:17:54;;;;;;;3.50;2.30;;;9.00;99.90;;;;;;5017475;28;20071;-85
2023/03/16 00:20:21;;;;;;;4.40;2.42;;;9.00;99.90;;;;;;4985281;28;20378;-87
2023/03/16 00:22:47;;;;;;;6.25;2.42;;;9.00;99.90;;;;;;4995032;28;20082;-87
2023/03/16 00:25:13;;;;;;;3.10;2.00;;;9.00;99.90;;;;;;5005050;28;20399;-87
2023/03/16 00:27:40;;;;;;;3.20;1.98;;;9.00;99.90;;;;;;4994175;28;20049;-85
2023/03/16 00:30:06;;;;;;;3.13;2.00;;;9.00;99.90;;;;;;4980392;28;20080;-88
2023/03/16 00:32:34;;;;;;;3.97;2.20;;;9.00;99.90;;;;;;5005405;28;20053;-87
2023/03/16 00:35:01;;;;;;;4.03;2.28;;;9.00;99.90;;;;;;5017166;28;20025;-88
2023/03/16 00:37:28;;;;;;;3.47;2.50;;;9.10;99.90;;;;;;4983613;28;20282;-87
2023/03/16 00:39:55;;;;;;;3.22;2.00;;;9.10;99.90;;;;;;5010537;28;20250;-88
2023/03/16 00:42:26;;;;;;;3.00;2.10;;;9.00;99.90;;;;;;4975682;28;20262;-85
2023/03/16 00:44:56;;;;;;;2.60;1.50;;;9.10;99.90;;;;;;5005596;28;20501;-86
2023/03/16 00:47:23;;;;;;;3.92;2.30;;;9.10;99.90;;;;;;4993218;28;20528;-85
2023/03/16 00:49:49;;;;;;;2.67;1.73;;;9.10;99.90;;;;;;4983231;28;20454;-87
2023/03/16 00:52:15;;;;;;;5.13;1.98;;;9.00;99.90;;;;;;4996808;28;20017;-89
2023/03/16 00:54:45;;;;;;;3.30;1.70;;;9.00;99.90;;;;;;5014386;28;20061;-85
2023/03/16 00:57:15;;;;;;;3.42;1.70;;;9.00;99.90;;;;;;4996734;28;20049;-88
2023/03/16 00:59:41;;;;;;;3.22;1.70;;;9.00;99.90;;;;;;5009158;28;20739;-85
2023/03/16 01:02:08;;;;;;;3.58;1.80;;;9.00;99.90;;;;;;4983948;28;20135;-88
2023/03/16 01:04:35;;;;;;;2.07;1.53;;;9.00;99.90;;;;;;5016623;28;20104;-86
2023/03/16 01:07:05;;;;;;;2.90;1.45;;;9.00;99.90;;;;;;4983453;28;20029;-88
2023/03/16 01:09:35;;;;;;;3.00;1.92;;;9.00;99.90;;;;;;5029740;28;20597;-87
2023/03/16 01:12:06;;;;;;;4.00;1.85;;;9.00;99.90;;;;;;5014141;28;20025;-88
2023/03/16 01:14:33;;;;;;;2.63;1.83;;;9.00;99.90;;;;;;4974483;28;20059;-87
2023/03/16 01:17:00;;;;;;;3.30;1.80;;;9.00;99.90;;;;;;4972621;28;20029;-88
2023/03/16 01:19:26;;;;;;;2.35;1.50;;;8.90;99.90;;;;;;4996361;28;20021;-86
2023/03/16 01:21:52;;;;;;;2.90;1.50;;;8.90;99.90;;;;;;5015830;28;20026;-86
2023/03/16 01:24:18;;;;;;;2.80;1.70;;;8.90;99.90;;;;;;4995711;28;20190;-85
2023/03/16 01:26:44;;;;;;;2.60;1.50;;;8.90;99.90;;;;;;5003213;28;20049;-85
2023/03/16 01:29:11;;;;;;;2.63;1.60;;;8.90;99.90;;;;;;4988147;28;20021;-88
2023/03/16 01:31:37;;;;;;;3.30;1.60;;;8.90;99.90;;;;;;5012186;28;20269;-86
2023/03/16 01:34:03;;;;;;;3.35;1.60;;;8.90;99.90;;;;;;4980492;28;20116;-88
2023/03/16 01:36:30;;;;;;;3.20;2.00;;;8.90;99.90;;;;;;4997212;28;20143;-84
2023/03/16 01:38:57;;;;;;;2.65;1.50;;;8.90;99.90;;;;;;4993045;28;20025;-87
2023/03/16 01:41:24;;;;;;;2.70;1.40;;;8.90;99.90;;;;;;5028718;28;20119;-84
2023/03/16 01:43:50;;;;;;;2.38;1.42;;;8.90;99.90;;;;;;5014761;28;20060;-85
2023/03/16 01:46:26;;;;;;;2.30;1.38;;;8.90;99.90;;;;;;5021063;28;20155;-85
2023/03/16 01:49:04;;;;;;;3.58;1.58;;;8.90;99.90;;;;;;4974362;28;20033;-86
2023/03/16 01:51:44;;;;;;;2.28;1.40;;;8.90;99.90;;;;;;5013233;28;20224;-88
2023/03/16 01:54:15;;;;;;;3.07;1.43;;;9.00;99.90;;;;;;4990716;28;20117;-87
2023/03/16 01:57:06;;;;;;;2.92;1.33;;;9.00;99.90;;;;;;5015842;28;20029;-85
2023/03/16 01:59:47;;;;;;;2.25;1.40;;;9.00;99.90;;;;;;4995013;28;20143;-85
2023/03/16 02:02:17;;;;;;;2.08;1.40;;;9.00;99.90;;;;;;4991269;28;20110;-88
2023/03/16 02:04:48;;;;;;;1.92;1.50;;;9.00;99.90;;;;;;4981733;28;20026;-84
2023/03/16 02:07:16;;;;;;;1.60;1.10;;;9.00;99.90;;;;;;4977196;28;20266;-87
2023/03/16 02:09:45;;;;;;;2.10;1.40;;;9.00;99.90;;;;;;5001376;28;20025;-86
2023/03/16 02:12:17;;;;;;;2.67;1.40;;;9.00;99.90;;;;;;4976333;28;20497;-87
2023/03/16 02:14:44;;;;;;;2.08;1.40;;;9.00;99.90;;;;;;5029029;28;20558;-87
2023/03/16 02:17:11;;;;;;;2.20;1.40;;;9.00;99.90;;;;;;4996988;28;20036;-89
2023/03/16 02:19:55;;;;;;;2.30;1.30;;;9.00;99.90;;;;;;4981729;28;20129;-87
2023/03/16 02:22:23;;;;;;;2.30;1.40;;;9.10;99.90;;;;;;4983667;28;20498;-86
2023/03/16 02:24:53;;;;;;;2.80;1.48;;;9.10;99.90;;;;;;4999771;28;20318;-87
2023/03/16 02:27:47;;;;;;;2.60;1.50;;;9.10;99.90;;;;;;5031467;28;20657;-87
2023/03/16 02:30:15;;;;;;;2.92;1.60;;;9.10;99.90;;;;;;4981274;28;20052;-88
2023/03/16 02:32:41;;;;;;;3.50;1.50;;;9.10;99.90;;;;;;4975607;28;20467;-88
2023/03/16 02:35:09;;;;;;;2.35;1.33;;;9.00;99.90;;;;;;4983864;28;20064;-86
2023/03/16 02:37:34;;;;;;;2.17;1.50;;;9.00;99.90;;;;;;4982490;28;20025;-88
2023/03/16 02:40:12;;;;;;;2.30;1.20;;;9.00;99.90;;;;;;5001846;28;20234;-86
2023/03/16 02:42:38;;;;;;;2.63;1.30;;;9.00;99.90;;;;;;4988745;28;20026;-88
2023/03/16 02:45:04;;;;;;;3.28;1.50;;;9.00;99.90;;;;;;5006291;28;20029;-85
2023/03/16 02:47:38;;;;;;;1.70;1.10;;;9.00;99.90;;;;;;4976827;28;20022;-88
2023/03/16 02:50:05;;;;;;;2.67;1.10;;;8.90;99.90;;;;;;4972568;28;20029;-87
2023/03/16 02:52:36;;;;;;;3.00;1.50;;;8.90;99.90;;;;;;4983806;28;20133;-88
2023/03/16 02:55:04;;;;;;;3.38;1.63;;;8.90;99.90;;;;;;5001085;28;20020;-87
2023/03/16 02:57:30;;;;;;;2.28;1.48;;;8.90;99.90;;;;;;4995557;28;20048;-88
2023/03/16 02:59:56;;;;;;;2.77;1.60;;;8.80;99.90;;;;;;4997444;28;20146;-86
2023/03/16 03:02:22;;;;;;;2.90;1.30;;;8.80;99.90;;;;;;5015421;28;20021;-88
2023/03/16 03:04:48;;;;;;;1.95;1.30;;;8.80;99.90;;;;;;5008984;28;20442;-87
2023/03/16 03:07:15;;;;;;;2.10;1.37;;;8.80;99.90;;;;;;4988176;28;20075;-87
2023/03/16 03:09:41;;;;;;;2.15;1.13;;;8.70;99.90;;;;;;4997830;28;20028;-89
2023/03/16 03:12:08;;;;;;;1.80;1.20;;;8.70;99.90;;;;;;4993363;28;20029;-87
2023/03/16 03:14:36;;;;;;;1.88;1.08;;;8.70;99.90;;;;;;5032498;28;20725;-89
2023/03/16 03:17:04;;;;;;;1.77;1.10;;;8.60;99.90;;;;;;5002319;28;20385;-86
2023/03/16 03:19:29;;;;;;;2.03;1.10;;;8.60;99.90;;;;;;5016270;28;20088;-89
2023/03/16 03:21:58;;;;;;;1.80;1.23;;;8.60;99.90;;;;;;4993812;28;20139;-87
2023/03/16 03:24:23;;;;;;;3.55;1.20;;;8.60;99.90;;;;;;4993616;28;20556;-90
2023/03/16 03:26:50;;;;;;;1.63;1.10;;;8.50;99.90;;;;;;4990710;28;20092;-86
2023/03/16 03:29:16;;;;;;;2.30;1.40;;;8.50;99.90;;;;;;5004137;28;20032;-86
2023/03/16 03:31:42;;;;;;;2.53;1.05;;;8.40;99.90;;;;;;4998665;28;20052;-88
2023/03/16 03:34:08;;;;;;;1.90;1.20;;;8.40;99.90;;;;;;4998185;28;20033;-89
2023/03/16 03:36:34;;;;;;;2.30;1.17;;;8.30;99.90;;;;;;4977198;28;20041;-90
2023/03/16 03:39:03;;;;;;;1.95;1.20;;;8.30;99.90;;;;;;4966471;28;20037;-88
2023/03/16 03:41:30;;;;;;;2.83;1.03;;;8.30;99.90;;;;;;4999830;28;20112;-89
2023/03/16 03:43:55;;;;;;;2.78;1.20;;;8.30;99.90;;;;;;4993118;28;20534;-89
2023/03/16 03:46:21;;;;;;;1.88;1.30;;;8.30;99.90;;;;;;4997612;28;20014;-88
2023/03/16 03:48:47;;;;;;;2.00;1.20;;;8.20;99.90;;;;;;4981026;28;20137;-89
2023/03/16 03:51:12;;;;;;;2.97;1.33;;;8.20;99.90;;;;;;4977964;28;20105;-89
2023/03/16 03:53:38;;;;;;;2.03;1.30;;;8.20;99.90;;;;;;4997346;28;20048;-89
2023/03/16 03:56:04;;;;;;;4.43;1.30;;;8.20;99.90;;;;;;4999840;28;20104;-89
2023/03/16 03:58:30;;;;;;;1.58;1.17;;;8.20;99.90;;;;;;4995094;28;20117;-90
2023/03/16 04:00:55;;;;;;;1.20;1.03;;;8.20;99.90;;;;;;4995895;28;20439;-87
2023/03/16 04:03:21;;;;;;;1.93;1.00;;;8.20;99.90;;;;;;5031969;28;20276;-87
2023/03/16 04:05:46;;;;;;;1.80;1.20;;;8.20;99.90;;;;;;4976657;28;20025;-88
2023/03/16 04:08:12;;;;;;;2.70;1.30;;;8.20;99.90;;;;;;4979912;28;20028;-88
2023/03/16 04:10:38;;;;;;;1.80;1.20;;;8.20;99.90;;;;;;4996258;28;20384;-90
2023/03/16 04:13:03;;;;;;;1.92;1.15;;;8.20;99.90;;;;;;4998009;28;20157;-87
2023/03/16 04:15:31;;;;;;;1.70;1.10;;;8.20;99.90;;;;;;4977467;28;20025;-89
2023/03/16 04:17:58;;;;;;;2.53;1.20;;;8.20;99.90;;;;;;4973201;28;20227;-88
2023/03/16 04:20:23;;;;;;;3.08;1.40;;;8.20;99.90;;;;;;4983499;28;20120;-90
2023/03/16 04:22:57;;;;;;;2.80;1.20;;;8.20;99.90;;;;;;4986838;28;20264;-91
2023/03/16 04:25:25;;;;;;;3.05;1.80;;;8.20;99.90;;;;;;4984533;28;20403;-90
2023/03/16 04:27:51;;;;;;;3.05;1.52;;;8.20;99.90;;;;;;5014126;28;20060;-88
2023/03/16 04:30:16;;;;;;;3.07;1.60;;;8.20;99.90;;;;;;4989003;28;20033;-89
2023/03/16 04:32:42;;;;;;;3.97;1.90;;;8.20;99.90;;;;;;5011324;28;20735;-89
2023/03/16 04:35:08;;;;;;;3.20;1.83;;;8.20;99.90;;;;;;5006335;28;20250;-89
2023/03/16 04:37:34;;;;;;;2.50;1.63;;;8.20;99.90;;;;;;4990431;28;20036;-90
2023/03/16 04:40:08;;;;;;;3.25;2.10;;;8.20;99.90;;;;;;4966660;28;20037;-89
2023/03/16 04:42:34;;;;;;;3.88;1.80;;;8.20;99.90;;;;;;4978020;28;20603;-91
2023/03/16 04:45:00;;;;;;;2.90;1.60;;;8.20;99.90;;;;;;4983338;28;20668;-91
2023/03/16 04:47:26;;;;;;;3.42;1.52;;;8.20;99.90;;;;;;4982682;28;20021;-90
2023/03/16 04:49:51;;;;;;;4.07;1.73;;;8.30;99.90;;;;;;5014033;28;20125;-90
2023/03/16 04:52:17;;;;;;;4.57;1.70;;;8.30;99.90;;;;;;4996995;28;20041;-88
2023/03/16 04:54:42;;;;;;;2.60;1.40;;;8.30;99.90;;;;;;4976636;28;20311;-89
2023/03/16 04:57:08;;;;;;;3.53;1.47;;;8.30;99.90;;;;;;4989354;28;20026;-90
2023/03/16 04:59:34;;;;;;;3.63;1.63;;;8.30;99.90;;;;;;4991625;28;20283;-91
2023/03/16 05:02:00;;;;;;;2.87;1.70;;;8.30;99.90;;;;;;4995884;28;20599;-88
2023/03/16 05:04:25;;;;;;;2.85;1.38;;;8.30;99.90;;;;;;4982180;28;20067;-90
2023/03/16 05:06:51;;;;;;;3.30;1.40;;;8.30;99.90;;;;;;4991533;28;20095;-88
2023/03/16 05:09:17;;;;;;;2.00;1.20;;;8.30;99.90;;;;;;5009351;28;20029;-91
2023/03/16 05:11:42;;;;;;;4.80;1.50;;;8.30;99.90;;;;;;4959719;28;20123;-89
2023/03/16 05:14:08;;;;;;;2.50;1.40;;;8.30;99.90;;;;;;5014265;28;20124;-89
2023/03/16 05:16:34;;;;;;;2.20;1.50;;;8.30;99.90;;;;;;5013793;28;20718;-89
2023/03/16 05:19:00;;;;;;;3.05;1.33;;;8.30;99.90;;;;;;4981703;28;20040;-92
2023/03/16 05:21:26;;;;;;;2.95;1.60;;;8.30;99.90;;;;;;5013726;28;20029;-89
2023/03/16 05:23:52;;;;;;;2.40;1.10;;;8.30;99.90;;;;;;4983906;28;20120;-89
2023/03/16 05:26:18;;;;;;;1.80;1.30;;;8.30;99.90;;;;;;4995642;28;20497;-88
2023/03/16 05:28:44;;;;;;;3.28;1.50;;;8.30;99.90;;;;;;4972057;28;20250;-89
2023/03/16 05:31:10;;;;;;;2.25;1.40;;;8.30;99.90;;;;;;4998128;28;20478;-90
2023/03/16 05:33:36;;;;;;;2.55;1.60;;;8.30;99.90;;;;;;5014365;28;20045;-91
2023/03/16 05:36:02;;;;;;;3.57;1.60;;;8.30;99.90;;;;;;4984725;28;20030;-90
2023/03/16 05:38:30;;;;;;;2.05;1.38;;;8.30;99.90;;;;;;4973592;28;20360;-90
2023/03/16 05:41:00;;;;;;;2.78;1.40;;;8.30;99.90;;;;;;4997572;28;20120;-89
2023/03/16 05:43:27;;;;;;;2.15;1.30;;;8.30;99.90;;;;;;4983114;28;20479;-91
2023/03/16 05:45:54;;;;;;;2.43;1.20;;;8.20;99.90;;;;;;4997631;28;20021;-90
2023/03/16 05:48:20;;;;;;;4.35;1.40;;;8.30;99.90;;;;;;5013011;28;20022;-91
2023/03/16 05:50:47;;;;;;;2.58;1.45;;;8.30;99.90;;;;;;5011540;28;20223;-89
2023/03/16 05:53:14;;;;;;;1.67;1.10;;;8.30;99.90;;;;;;4996409;28;20033;-90
2023/03/16 05:55:40;;;;;;;1.95;1.17;;;8.30;99.90;;;;;;4971674;28;20022;-91
2023/03/16 05:58:05;;;;;;;2.53;1.13;;;8.30;99.90;;;;;;4986367;28;20502;-89
2023/03/16 06:00:31;;;;;;;1.98;1.30;;;8.30;99.90;;;;;;4978996;28;20037;-91
2023/03/16 06:02:57;;;;;;;2.55;1.30;;;8.30;99.90;;;;;;4988371;28;20049;-90
2023/03/16 06:05:23;;;;;;;2.40;1.33;;;8.40;99.90;;;;;;4987598;28;20025;-90
2023/03/16 06:07:51;;;;;;;2.78;1.45;;;8.40;99.90;;;;;;4985157;28;20684;-89
2023/03/16 06:10:17;;;;;;;2.80;1.60;;;8.40;99.90;;;;;;4979160;28;20021;-89
2023/03/16 06:12:43;;;;;;;3.30;1.40;;;8.50;99.90;;;;;;4984367;28;20030;-91
2023/03/16 06:15:10;;;;;;;2.60;1.50;;;8.50;99.90;;;;;;4961421;28;20113;-91
2023/03/16 06:17:37;;;;;;;2.78;1.27;;;8.50;99.90;;;;;;4982068;28;20391;-89
2023/03/16 06:20:10;;;;;;;4.10;1.77;;;8.50;99.90;;;;;;5017020;28;20026;-91
2023/03/16 06:22:40;;;;;;;2.55;1.40;;;8.60;99.90;;;;;;4975605;28;20034;-90
2023/03/16 06:25:08;;;;;;;3.60;1.50;;;8.60;99.90;;;;;;5006759;28;20033;-91
2023/03/16 06:27:35;;;;;;;2.73;1.53;;;8.60;99.90;;;;;;5017745;28;20113;-91
2023/03/16 06:30:01;;;;;;;3.75;1.60;;;8.60;99.90;;;;;;4970988;28;20018;-89
2023/03/16 06:32:26;;;;;;;3.20;1.38;;;8.70;99.90;;;;;;4972989;28;20711;-89
2023/03/16 06:34:52;;;;;;;2.87;1.23;;;8.70;99.90;;;;;;4999340;28;20108;-91
2023/03/16 06:37:18;;;;;;;2.17;1.20;;;8.70;99.90;;;;;;4976706;28;20304;-90
2023/03/16 06:39:44;;;;;;;4.85;1.55;;;8.70;99.90;;;;;;4983953;28;20113;-94
2023/03/16 06:42:10;;;;;;;2.80;1.40;;;8.70;99.90;;;;;;4968790;28;20029;-89
2023/03/16 06:44:36;;;;;;;3.08;1.50;;;8.80;99.90;;;;;;4996291;28;20029;-91
2023/03/16 06:47:02;;;;;;;2.75;1.20;;;8.80;99.90;;;;;;4967623;28;20263;-90
2023/03/16 06:49:29;;;;;;;1.97;1.00;;;8.80;99.90;;;;;;4996994;28;20025;-91
2023/03/16 06:51:57;;;;;;;2.83;1.10;;;8.80;99.90;;;;;;4980772;28;20238;-90
2023/03/16 06:54:23;;;;;;;2.13;1.23;;;8.80;99.90;;;;;;4988801;28;20064;-90
2023/03/16 06:56:49;;;;;;;2.80;1.20;;;8.80;99.90;;;;;;4976744;28;20124;-90
2023/03/16 06:59:15;;;;;;;1.52;1.00;;;8.90;99.90;;;;;;5002256;28;20099;-90
2023/03/16 07:01:41;;;;;;;2.37;1.20;;;8.90;99.90;;;;;;4966917;28;20680;-92
2023/03/16 07:04:07;;;;;;;1.42;0.90;;;8.90;99.90;;;;;;5000566;28;20040;-90
2023/03/16 07:06:33;;;;;;;2.77;1.20;;;8.90;99.90;;;;;;4983117;28;20021;-91
2023/03/16 07:09:00;;;;;;;2.13;1.23;;;9.00;99.90;;;;;;4998640;28;20217;-88
2023/03/16 07:11:26;;;;;;;1.80;1.15;;;9.00;99.90;;;;;;4980953;28;20026;-90
2023/03/16 07:13:51;;;;;;;2.90;1.20;;;9.00;99.90;;;;;;5015610;28;20342;-89
2023/03/16 07:16:17;;;;;;;1.87;1.20;;;9.00;99.90;;;;;;5001658;28;20462;-91
2023/03/16 07:18:43;;;;;;;1.60;1.20;;;9.10;99.90;;;;;;4963513;28;20527;-90
2023/03/16 07:21:10;;;;;;;1.77;0.93;;;9.10;99.90;;;;;;4983801;28;20033;-90
2023/03/16 07:23:36;;;;;;;1.95;1.13;;;9.10;99.90;;;;;;4979172;28;20029;-91
2023/03/16 07:26:02;;;;;;;2.63;1.20;;;9.10;99.90;;;;;;5006540;28;20140;-89
2023/03/16 07:28:28;;;;;;;1.20;1.00;;;9.20;99.90;;;;;;4999826;28;20943;-90
2023/03/16 07:30:54;;;;;;;1.42;1.08;;;9.20;99.90;;;;;;5010156;28;20263;-90
2023/03/16 07:33:20;;;;;;;1.90;1.20;;;9.20;99.90;;;;;;4969296;28;20029;-91
2023/03/16 07:35:45;;;;;;;2.43;1.30;;;9.20;99.90;;;;;;4995763;28;20507;-90
2023/03/16 07:38:11;;;;;;;2.80;1.30;;;9.30;99.90;;;;;;4985289;28;20555;-90
2023/03/16 07:40:39;;;;;;;2.07;1.43;;;9.30;99.90;;;;;;5017782;28;20711;-90
2023/03/16 07:43:05;;;;;;;1.52;1.10;;;9.40;99.90;;;;;;4986823;28;20343;-89
2023/03/16 07:45:30;;;;;;;1.88;1.10;;;9.40;99.90;;;;;;4999274;28;20156;-90
2023/03/16 07:47:56;;;;;;;1.90;1.20;;;9.40;99.90;;;;;;4979117;28;20025;-87
2023/03/16 07:50:22;;;;;;;2.85;1.40;;;9.50;99.90;;;;;;5001461;28;20016;-88
2023/03/16 07:52:47;;;;;;;1.90;1.30;;;9.50;99.90;;;;;;5013809;28;20026;-90
2023/03/16 07:55:14;;;;;;;2.35;1.33;;;9.50;99.90;;;;;;4986493;28;20113;-88
2023/03/16 07:57:41;;;;;;;2.50;1.30;;;9.70;99.90;;;;;;4979153;28;20029;-90
2023/03/16 08:00:09;;;;;;;2.17;1.20;;;9.90;99.90;;;;;;4993770;28;20665;-87
2023/03/16 08:02:34;;;;;;;2.28;1.35;;;10.00;99.90;;;;;;4994015;28;20025;-90
2023/03/16 08:05:00;;;;;;;3.40;1.55;;;10.30;99.90;;;;;;4977560;28;20228;-87
2023/03/16 08:07:26;;;;;;;3.10;1.30;;;10.60;99.90;;;;;;4998110;28;20026;-87
2023/03/16 08:09:52;;;;;;;1.70;1.20;;;11.00;99.90;;;;;;4988730;28;20029;-87
2023/03/16 08:12:18;;;;;;;2.00;1.30;;;11.40;99.90;;;;;;4987687;28;20060;-91
2023/03/16 08:14:45;;;;;;;3.57;1.20;;;11.70;99.90;;;;;;4977662;28;20060;-91
2023/03/16 08:17:11;;;;;;;2.92;1.30;;;12.00;99.90;;;;;;4994249;28;20029;-88
2023/03/16 08:19:37;;;;;;;1.58;1.10;;;12.10;99.90;;;;;;4975983;28;20021;-91
2023/03/16 08:22:04;;;;;;;3.03;1.33;;;12.20;99.90;;;;;;4998246;28;20052;-90
2023/03/16 08:24:31;;;;;;;2.80;1.60;;;12.30;99.90;;;;;;5001342;28;20029;-89
2023/03/16 08:26:58;;;;;;;3.05;1.40;;;12.40;99.90;;;;;;5013808;28;20423;-88
2023/03/16 08:29:25;;;;;;;2.10;1.20;;;12.60;99.90;;;;;;4995865;28;20057;-87
2023/03/16 08:31:55;;;;;;;2.10;1.38;;;12.70;99.90;;;;;;4991906;28;20075;-88
2023/03/16 08:34:21;;;;;;;1.77;1.40;;;12.80;99.90;;;;;;4981069;28;20036;-90
2023/03/16 08:36:47;;;;;;;2.50;1.37;;;13.00;99.90;;;;;;4962144;28;20029;-89
2023/03/16 08:39:12;;;;;;;2.55;1.45;;;13.10;99.90;;;;;;5031417;28;20055;-87
2023/03/16 08:41:39;;;;;;;2.30;1.20;;;13.40;99.90;;;;;;4996868;28;20026;-91
2023/03/16 08:44:06;;;;;;;2.03;1.10;;;13.60;99.90;;;;;;4988074;28;20244;-87
2023/03/16 08:46:33;;;;;;;2.05;1.15;;;13.80;99.90;;;;;;4989795;28;20056;-89
2023/03/16 08:48:59;;;;;;;3.00;1.55;;;14.00;99.90;;;;;;4981495;28;20344;-92
2023/03/16 08:51:25;;;;;;;1.70;1.30;;;14.30;99.90;;;;;;4965253;28;20056;-87
2023/03/16 08:53:51;;;;;;;2.05;1.30;;;14.50;99.90;;;;;;4986225;28;20488;-86
2023/03/16 08:56:17;;;;;;;1.50;1.10;;;14.70;99.90;;;;;;5014571;28;20025;-89
2023/03/16 08:58:44;;;;;;;3.23;1.23;;;14.90;99.90;;;;;;4994714;28;20494;-89
2023/03/16 09:01:12;;;;;;;2.78;1.42;;;15.20;99.90;;;;;;4997867;28;20048;-88
2023/03/16 09:03:39;;;;;;;2.45;1.30;;;15.50;99.90;;;;;;4991979;28;20025;-89
2023/03/16 09:06:08;;;;;;;2.50;1.13;;;15.80;99.90;;;;;;4996716;28;20119;-90
2023/03/16 09:08:37;;;;;;;2.05;1.20;;;16.00;99.90;;;;;;4970635;28;20087;-90
2023/03/16 09:11:06;;;;;;;2.57;1.07;;;16.30;99.90;;;;;;4997887;28;20394;-89
2023/03/16 09:13:32;;;;;;;2.53;1.00;;;16.50;99.90;;;;;;5016302;28;20711;-89
2023/03/16 09:15:59;;;;;;;2.20;1.10;;;16.60;99.90;;;;;;5011559;28;20027;-90
2023/03/16 09:18:25;;;;;;;2.03;0.90;;;16.70;99.90;;;;;;4981251;28;20029;-89
2023/03/16 09:20:56;;;;;;;1.15;0.80;;;16.80;99.90;;;;;;4995491;28;20474;-87
2023/03/16 09:23:22;;;;;;;1.93;0.90;;;16.70;99.90;;;;;;4980554;28;20510;-87
2023/03/16 09:25:48;;;;;;;1.63;0.90;;;16.60;99.90;;;;;;4998204;28;20026;-88
2023/03/16 09:28:13;;;;;;;2.63;0.90;;;16.60;99.90;;;;;;4988215;28;20030;-89
2023/03/16 09:30:39;;;;;;;2.70;1.03;;;16.50;99.90;;;;;;5004444;28;20026;-90
2023/03/16 09:33:05;;;;;;;1.60;0.85;;;16.30;99.90;;;;;;4995144;28;20061;-86
2023/03/16 09:35:31;;;;;;;1.60;1.00;;;16.30;99.90;;;;;;4990184;28;20025;-90
2023/03/16 09:37:56;;;;;;;3.03;1.00;;;16.20;99.90;;;;;;4976205;28;20340;-89
2023/03/16 09:40:23;;;;;;;2.03;0.87;;;16.10;99.90;;;;;;4960821;28;20026;-88
2023/03/16 09:43:04;;;;;;;1.77;1.00;;;16.00;99.90;;;;;;4990441;28;20018;-89
2023/03/16 09:46:08;;;;;;;1.27;0.82;;;15.90;99.90;;;;;;4994161;28;20487;-89
2023/03/16 09:48:37;;;;;;;1.85;1.02;;;15.80;99.90;;;;;;4983897;28;20279;-88
2023/03/16 09:51:06;;;;;;;1.63;0.90;;;15.70;99.90;;;;;;4989879;28;20743;-88
2023/03/16 09:53:38;;;;;;;2.20;1.10;;;15.60;99.90;;;;;;4991230;28;20080;-88
2023/03/16 09:56:10;;;;;;;3.03;1.08;;;15.60;99.90;;;;;;4983639;28;20088;-88
2023/03/16 09:58:36;;;;;;;2.60;1.00;;;15.60;99.90;;;;;;4993607;28;20033;-89
2023/03/16 10:01:20;;;;;;;3.45;0.95;;;15.70;99.90;;;;;;4974321;28;20022;-87
2023/03/16 10:03:56;;;;;;;2.50;0.90;;;15.70;99.90;;;;;;4970542;28;20069;-87
2023/03/16 10:06:22;;;;;;;2.45;0.95;;;15.90;99.90;;;;;;4988638;28;20541;-88
2023/03/16 10:09:06;;;;;;;3.42;0.90;;;16.10;99.90;;;;;;4991370;28;20022;-89
2023/03/16 10:11:52;;;;;;;3.00;1.10;;;16.30;99.90;;;;;;4991294;28;20030;-88
2023/03/16 10:14:44;;;;;;;2.70;1.00;;;16.60;99.90;;;;;;4978044;28;20354;-85
2023/03/16 10:17:16;;;;;;;2.27;0.80;;;16.90;99.90;;;;;;4973474;28;20042;-86
2023/03/16 10:19:53;;;;;;;1.52;1.00;;;17.20;99.90;;;;;;4973447;28;20164;-87
2023/03/16 10:22:25;;;;;;;1.05;0.82;;;17.40;99.90;;;;;;4994832;28;20033;-89
2023/03/16 10:25:05;;;;;;;1.88;0.90;;;17.70;99.90;;;;;;4974197;28;20495;-85
2023/03/16 10:27:37;;;;;;;2.55;0.98;;;18.20;99.90;;;;;;5012657;28;20034;-87
2023/03/16 10:30:13;;;;;;;2.37;1.10;;;18.50;99.90;;;;;;5010962;28;20491;-87
2023/03/16 10:32:39;;;;;;;1.98;0.90;;;18.90;99.90;;;;;;5013771;28;20075;-88
2023/03/16 10:35:30;;;;;;;2.33;0.95;;;19.20;99.90;;;;;;4979659;28;20030;-86
2023/03/16 10:37:57;;;;;;;2.47;0.80;;;19.60;99.90;;;;;;4977480;28;20214;-84
2023/03/16 10:40:23;;;;;;;1.38;0.90;;;19.90;99.90;;;;;;4984634;28;20041;-88
2023/03/16 10:42:49;;;;;;;1.33;0.85;;;20.10;99.90;;;;;;4981934;28;20220;-86
2023/03/16 10:45:30;;;;;;;2.25;0.98;;;20.20;99.90;;;;;;5002721;28;20036;-87
2023/03/16 10:48:07;;;;;;;1.50;1.00;;;20.50;99.90;;;;;;4976998;28;20045;-88
2023/03/16 10:50:33;;;;;;;1.90;0.80;;;20.60;99.90;;;;;;5000230;28;20215;-87
2023/03/16 10:53:01;;;;;;;2.03;1.00;;;20.70;99.90;;;;;;5013422;28;20562;-87
2023/03/16 10:55:31;;;;;;;1.63;0.70;;;20.90;99.90;;;;;;5000064;28;20093;-86
2023/03/16 10:57:57;;;;;;;2.43;1.00;;;21.00;99.90;;;;;;4984963;28;20056;-86
2023/03/16 11:00:29;;;;;;;2.17;0.80;;;21.10;99.90;;;;;;5020614;28;20033;-87
2023/03/16 11:02:58;;;;;;;1.23;0.80;;;21.20;99.90;;;;;;5008565;28;20061;-87
2023/03/16 11:05:24;;;;;;;2.08;1.00;;;21.20;99.90;;;;;;4984005;28;20433;-88
2023/03/16 11:07:59;;;;;;;0.80;0.80;;;21.20;99.90;;;;;;4988723;28;20221;-87
2023/03/16 11:10:27;;;;;;;1.50;0.80;;;21.10;99.20;;;;;;4996710;28;20277;-86
2023/03/16 11:12:54;;;;;;;1.20;0.70;;;21.10;99.90;;;;;;4976139;28;20246;-86
2023/03/16 11:15:20;;;;;;;1.23;0.70;;;21.00;99.90;;;;;;5000800;28;20022;-87
2023/03/16 11:17:52;;;;;;;0.80;0.60;;;20.80;99.90;;;;;;4994787;28;20021;-87
2023/03/16 11:20:37;;;;;;;2.03;0.70;;;20.70;99.90;;;;;;5017912;28;20025;-86
2023/03/16 11:23:10;;;;;;;1.90;0.80;;;20.70;99.90;;;;;;4998525;28;20224;-87
2023/03/16 11:25:57;;;;;;;0.95;0.75;;;20.60;99.90;;;;;;4995746;28;20104;-87
2023/03/16 11:28:40;;;;;;;1.98;0.70;;;20.60;99.90;;;;;;4966923;28;20029;-89
2023/03/16 11:31:12;;;;;;;1.48;0.80;;;20.60;99.70;;;;;;4999450;28;20022;-85
2023/03/16 11:33:39;;;;;;;2.53;0.90;;;20.60;99.90;;;;;;4982166;28;20045;-89
2023/03/16 11:36:11;;;;;;;2.13;0.90;;;20.60;99.90;;;;;;4996564;28;20029;-88
2023/03/16 11:39:12;;;;;;;1.95;0.80;;;20.80;99.90;;;;;;5016152;28;20554;-88
2023/03/16 11:42:19;;;;;;;1.98;0.80;;;20.90;95.80;;;;;;4989129;28;20084;-89
2023/03/16 11:45:20;;;;;;;1.90;0.88;;;21.00;98.20;;;;;;4979685;28;20044;-88
2023/03/16 11:47:54;;;;;;;0.90;0.77;;;21.00;99.90;;;;;;4971756;28;20046;-88
2023/03/16 11:50:28;;;;;;;1.40;0.80;;;21.10;99.90;;;;;;5007962;28;20029;-87
2023/03/16 11:53:12;;;;;;;1.75;0.80;;;21.20;98.40;;;;;;5011626;28;20158;-90
2023/03/16 11:56:02;;;;;;;1.60;0.90;;;21.30;98.60;;;;;;4994285;28;20222;-87
2023/03/16 11:58:48;;;;;;;1.73;0.90;;;21.20;97.70;;;;;;4976572;28;20498;-86
2023/03/16 12:01:37;;;;;;;2.10;0.87;;;21.30;92.10;;;;;;5014347;28;20026;-86
2023/03/16 12:04:35;;;;;;;1.95;1.02;;;21.20;97.90;;;;;;4976598;28;20030;-88
2023/03/16 12:07:34;;;;;;;2.25;0.80;;;21.20;91.80;;;;;;4993779;28;20052;-87
2023/03/16 12:10:22;;;;;;;1.67;0.90;;;21.20;97.50;;;;;;4996379;28;20353;-87
2023/03/16 12:12:57;;;;;;;2.08;0.90;;;21.40;99.90;;;;;;5022248;28;20164;-89
2023/03/16 12:15:34;;;;;;;1.23;0.87;;;21.60;99.90;;;;;;4966802;28;20057;-88
2023/03/16 12:18:14;;;;;;;2.30;0.80;;;21.80;99.90;;;;;;4995894;28;20236;-87
2023/03/16 12:21:00;;;;;;;2.40;1.10;;;22.00;99.90;;;;;;5011359;28;20045;-89
2023/03/16 12:23:52;;;;;;;1.50;0.90;;;22.20;95.70;;;;;;4998934;28;20079;-89
2023/03/16 12:26:24;;;;;;;1.67;0.90;;;22.40;96.50;;;;;;4993231;28;20134;-88
2023/03/16 12:28:53;;;;;;;1.30;1.00;;;22.40;96.00;;;;;;4989519;28;20295;-89
2023/03/16 12:31:21;;;;;;;1.17;0.90;;;22.40;98.40;;;;;;5016991;28;20026;-88
2023/03/16 12:33:59;;;;;;;2.00;0.90;;;22.50;98.40;;;;;;5011427;28;20605;-88
2023/03/16 12:37:03;;;;;;;1.50;0.95;;;22.60;98.30;;;;;;4991288;28;20069;-92
2023/03/16 12:39:50;;;;;;;1.60;0.98;;;22.60;98.70;;;;;;4937245;28;20030;-89
2023/03/16 12:42:54;;;;;;;2.30;1.00;;;22.70;95.70;;;;;;5011349;28;20538;-88
2023/03/16 12:45:31;;;;;;;1.27;0.80;;;22.70;78.00;;;;;;4963385;28;20034;-87
2023/03/16 12:47:57;;;;;;;1.38;0.88;;;22.80;96.60;;;;;;5009687;28;20354;-89
2023/03/16 12:50:24;;;;;;;1.45;0.85;;;22.80;99.50;;;;;;5014830;28;20112;-88
2023/03/16 12:52:52;;;;;;;1.23;0.80;;;22.90;99.90;;;;;;4992690;28;20069;-87
2023/03/16 12:55:22;;;;;;;1.63;0.75;;;23.00;99.40;;;;;;5015918;28;20471;-89
2023/03/16 12:57:57;;;;;;;1.30;0.80;;;23.10;97.70;;;;;;4996873;28;20271;-86
2023/03/16 13:00:36;;;;;;;2.45;0.80;;;23.20;98.00;;;;;;5010683;28;20020;-88
2023/03/16 13:03:04;;;;;;;1.17;0.70;;;23.30;91.70;;;;;;4968336;28;20279;-88
2023/03/16 13:05:35;;;;;;;1.43;0.73;;;23.10;95.60;;;;;;5029478;28;20136;-90